createdAt,value
2023-04-03T00:01:33.538Z,11.08
2023-04-03T00:04:06.394Z,11.06
2023-04-03T00:06:39.331Z,11.03
2023-04-03T00:09:12.074Z,11.02
2023-04-03T00:11:46.228Z,10.99
2023-04-03T00:14:18.959Z,10.98
2023-04-03T00:16:51.726Z,10.94
2023-04-03T00:19:24.638Z,10.93
2023-04-03T00:21:57.504Z,10.90
2023-04-03T00:24:30.391Z,10.88
2023-04-03T00:27:04.469Z,10.84
2023-04-03T00:29:37.137Z,10.78
2023-04-03T00:32:09.804Z,10.73
2023-04-03T00:34:42.489Z,10.69
2023-04-03T00:37:15.443Z,10.62
2023-04-03T00:39:48.148Z,10.58
2023-04-03T00:42:22.689Z,10.53
2023-04-03T00:45:14.512Z,10.48
2023-04-03T00:47:47.552Z,10.40
2023-04-03T00:50:20.455Z,10.32
2023-04-03T00:52:53.349Z,10.26
2023-04-03T00:55:27.293Z,10.19
2023-04-03T00:58:01.998Z,10.11
2023-04-03T01:00:34.948Z,10.05
2023-04-03T01:03:07.906Z,9.99
2023-04-03T01:05:41.702Z,9.93
2023-04-03T01:08:14.530Z,9.87
2023-04-03T01:10:47.389Z,9.83
2023-04-03T01:13:35.567Z,9.77
2023-04-03T01:16:09.111Z,9.73
2023-04-03T01:18:42.765Z,9.69
2023-04-03T01:21:42.676Z,9.62
2023-04-03T01:24:24.247Z,9.56
2023-04-03T01:26:57.279Z,9.51
2023-04-03T01:29:31.828Z,9.48
2023-04-03T01:32:06.224Z,9.44
2023-04-03T01:34:39.209Z,9.41
2023-04-03T01:37:12.385Z,9.38
2023-04-03T01:39:45.271Z,9.35
2023-04-03T01:42:18.201Z,9.34
2023-04-03T01:44:51.397Z,9.30
2023-04-03T01:47:26.068Z,9.28
2023-04-03T01:49:59.262Z,9.25
2023-04-03T01:52:32.407Z,9.24
2023-04-03T01:55:05.303Z,9.22
2023-04-03T01:57:38.115Z,9.21
2023-04-03T02:00:11.837Z,9.19
2023-04-03T02:02:45.980Z,9.16
2023-04-03T02:05:18.976Z,9.13
2023-04-03T02:07:51.709Z,9.10
2023-04-03T02:10:24.616Z,9.07
2023-04-03T02:12:57.259Z,9.05
2023-04-03T02:15:30.114Z,9.01
2023-04-03T02:18:07.632Z,9.00
2023-04-03T02:20:40.820Z,8.95
2023-04-03T02:23:13.592Z,8.90
2023-04-03T02:25:46.537Z,8.86
2023-04-03T02:28:19.301Z,8.81
2023-04-03T02:30:52.375Z,8.78
2023-04-03T02:33:26.943Z,8.73
2023-04-03T02:36:00.428Z,8.69
2023-04-03T02:38:33.590Z,8.66
2023-04-03T02:41:06.872Z,8.64
2023-04-03T02:43:40.016Z,8.63
2023-04-03T02:46:12.844Z,8.62
2023-04-03T02:48:47.061Z,8.56
2023-04-03T02:51:20.232Z,8.54
2023-04-03T02:53:53.056Z,8.48
2023-04-03T02:56:25.890Z,8.43
2023-04-03T02:58:58.562Z,8.37
2023-04-03T03:01:33.617Z,8.30
2023-04-03T03:04:07.918Z,8.24
2023-04-03T03:06:42.368Z,8.20
2023-04-03T03:09:16.779Z,8.15
2023-04-03T03:11:49.735Z,8.11
2023-04-03T03:14:22.737Z,8.08
2023-04-03T03:16:55.695Z,8.02
2023-04-03T03:19:30.110Z,8.00
2023-04-03T03:22:02.935Z,7.95
2023-04-03T03:24:35.693Z,7.89
2023-04-03T03:27:08.583Z,7.88
2023-04-03T03:29:41.351Z,7.85
2023-04-03T03:32:14.311Z,7.82
2023-04-03T03:34:48.776Z,7.80
2023-04-03T03:37:21.598Z,7.78
2023-04-03T03:39:54.338Z,7.78
2023-04-03T03:42:27.425Z,7.76
2023-04-03T03:45:00.157Z,7.75
2023-04-03T03:47:33.107Z,7.71
2023-04-03T03:50:08.629Z,7.72
2023-04-03T03:52:41.799Z,7.69
2023-04-03T03:55:14.577Z,7.70
2023-04-03T03:57:47.563Z,7.71
2023-04-03T04:00:20.962Z,7.72
2023-04-03T04:02:54.081Z,7.73
2023-04-03T04:05:29.220Z,7.78
2023-04-03T04:08:02.199Z,7.77
2023-04-03T04:10:35.129Z,7.78
2023-04-03T04:13:08.021Z,7.79
2023-04-03T04:15:41.336Z,7.81
2023-04-03T04:18:14.482Z,7.82
2023-04-03T04:20:48.618Z,7.84
2023-04-03T04:23:21.389Z,7.83
2023-04-03T04:25:54.164Z,7.85
2023-04-03T04:28:26.951Z,7.86
2023-04-03T04:30:59.660Z,7.88
2023-04-03T04:33:32.450Z,7.88
2023-04-03T04:36:07.330Z,7.93
2023-04-03T04:38:41.107Z,7.95
2023-04-03T04:41:14.055Z,7.94
2023-04-03T04:43:46.825Z,7.96
2023-04-03T04:46:20.069Z,7.97
2023-04-03T04:48:52.905Z,7.96
2023-04-03T04:51:28.413Z,7.96
2023-04-03T04:54:02.385Z,7.96
2023-04-03T04:56:35.632Z,7.97
2023-04-03T04:59:08.718Z,7.97
2023-04-03T05:01:42.110Z,7.99
2023-04-03T05:04:14.918Z,7.97
2023-04-03T05:06:49.408Z,7.99
2023-04-03T05:09:22.265Z,7.96
2023-04-03T05:11:55.023Z,7.97
2023-04-03T05:14:27.750Z,7.95
2023-04-03T05:17:00.456Z,7.95
2023-04-03T05:19:33.221Z,7.94
2023-04-03T05:22:07.382Z,7.91
2023-04-03T05:24:40.198Z,7.92
2023-04-03T05:27:12.930Z,7.90
2023-04-03T05:29:46.062Z,7.87
2023-04-03T05:32:18.953Z,7.87
2023-04-03T05:34:52.019Z,7.88
2023-04-03T05:37:26.372Z,7.89
2023-04-03T05:39:59.119Z,7.90
2023-04-03T05:42:31.912Z,7.92
2023-04-03T05:45:05.281Z,7.90
2023-04-03T05:47:38.062Z,7.91
2023-04-03T05:50:11.267Z,7.90
2023-04-03T05:52:47.809Z,7.90
2023-04-03T05:55:21.352Z,7.91
2023-04-03T05:57:54.150Z,7.94
2023-04-03T06:00:26.901Z,7.95
2023-04-03T06:02:59.706Z,7.99
2023-04-03T06:05:32.700Z,8.03
2023-04-03T06:08:06.785Z,8.07
2023-04-03T06:10:39.682Z,8.09
2023-04-03T06:13:13.531Z,8.13
2023-04-03T06:15:47.754Z,8.13
2023-04-03T06:18:20.537Z,8.16
2023-04-03T06:20:53.324Z,8.21
2023-04-03T06:23:27.442Z,8.25
2023-04-03T06:26:01.054Z,8.28
2023-04-03T06:28:33.761Z,8.35
2023-04-03T06:31:06.562Z,8.36
2023-04-03T06:33:41.261Z,8.43
2023-04-03T06:36:14.227Z,8.43
2023-04-03T06:38:48.308Z,8.45
2023-04-03T06:41:21.930Z,8.47
2023-04-03T06:43:54.763Z,8.53
2023-04-03T06:46:28.572Z,8.54
2023-04-03T06:49:01.223Z,8.60
2023-04-03T06:51:33.870Z,8.65
2023-04-03T06:54:09.307Z,8.71
2023-04-03T06:56:42.077Z,8.76
2023-04-03T06:59:15.862Z,8.82
2023-04-03T07:01:48.784Z,8.87
2023-04-03T07:04:22.273Z,8.93
2023-04-03T07:06:55.015Z,8.99
2023-04-03T07:09:29.062Z,9.03
2023-04-03T07:12:01.790Z,9.07
2023-04-03T07:14:34.450Z,9.13
2023-04-03T07:17:09.367Z,9.20
2023-04-03T07:19:42.334Z,9.24
2023-04-03T07:22:15.031Z,9.29
2023-04-03T07:24:49.225Z,9.34
2023-04-03T07:27:21.988Z,9.37
2023-04-03T07:29:55.652Z,9.42
2023-04-03T07:32:29.321Z,9.46
2023-04-03T07:35:02.920Z,9.52
2023-04-03T07:37:36.676Z,9.55
2023-04-03T07:40:11.773Z,9.62
2023-04-03T07:42:44.603Z,9.65
2023-04-03T07:45:18.360Z,9.69
2023-04-03T07:47:51.063Z,9.74
2023-04-03T07:50:23.924Z,9.78
2023-04-03T07:52:58.723Z,9.80
2023-04-03T07:55:34.985Z,9.84
2023-04-03T07:58:08.508Z,9.89
2023-04-03T08:00:41.379Z,9.92
2023-04-03T08:03:14.935Z,9.94
2023-04-03T08:05:48.840Z,10.00
2023-04-03T08:08:22.784Z,10.04
2023-04-03T08:10:57.038Z,10.04
2023-04-03T08:13:30.063Z,10.08
2023-04-03T08:16:09.254Z,10.08
2023-04-03T08:18:42.175Z,10.08
2023-04-03T08:21:15.253Z,10.08
2023-04-03T08:23:50.001Z,10.10
2023-04-03T08:26:24.100Z,10.14
2023-04-03T08:28:57.202Z,10.19
2023-04-03T08:31:29.909Z,10.23
2023-04-03T08:34:02.589Z,10.26
2023-04-03T08:36:35.466Z,10.28
2023-04-03T08:39:08.943Z,10.29
2023-04-03T08:41:44.896Z,10.31
2023-04-03T08:44:20.872Z,10.32
2023-04-03T08:47:05.464Z,10.36
2023-04-03T08:49:44.051Z,10.35
2023-04-03T08:52:19.837Z,10.38
2023-04-03T08:54:54.769Z,10.43
2023-04-03T08:57:31.659Z,10.46
2023-04-03T09:00:06.800Z,10.49
2023-04-03T09:02:44.193Z,10.53
2023-04-03T09:05:18.455Z,10.58
2023-04-03T09:07:56.584Z,10.64
2023-04-03T09:10:32.396Z,10.68
2023-04-03T09:13:09.752Z,10.73
2023-04-03T09:15:43.044Z,10.77
2023-04-03T09:18:17.803Z,10.82
2023-04-03T09:20:56.148Z,10.85
2023-04-03T09:23:31.973Z,10.85
2023-04-03T09:26:07.812Z,10.86
2023-04-03T09:28:50.621Z,10.83
2023-04-03T09:31:25.211Z,10.79
2023-04-03T09:34:00.587Z,10.78
2023-04-03T09:36:40.456Z,10.78
2023-04-03T09:39:14.563Z,10.76
2023-04-03T09:41:57.275Z,10.77
2023-04-03T09:44:32.658Z,10.78
2023-04-03T09:47:20.231Z,10.78
2023-04-03T09:49:53.019Z,10.77
2023-04-03T09:52:27.380Z,10.78
2023-04-03T09:55:08.554Z,10.84
2023-04-03T09:57:41.968Z,10.90
2023-04-03T10:00:23.875Z,10.99
2023-04-03T10:02:58.113Z,11.07
2023-04-03T10:05:33.528Z,11.18
2023-04-03T10:08:13.347Z,11.29
2023-04-03T10:10:47.998Z,11.40
2023-04-03T10:13:26.679Z,11.47
2023-04-03T10:16:03.956Z,11.54
2023-04-03T10:18:44.341Z,11.58
2023-04-03T10:21:27.537Z,11.60
2023-04-03T10:24:05.575Z,11.62
2023-04-03T10:26:41.649Z,11.60
2023-04-03T10:29:21.995Z,11.63
2023-04-03T10:32:01.966Z,11.66
2023-04-03T10:34:37.958Z,11.75
2023-04-03T10:37:16.300Z,11.83
2023-04-03T10:39:53.880Z,11.88
2023-04-03T10:42:30.952Z,11.93
2023-04-03T10:45:10.484Z,11.93
2023-04-03T10:47:48.695Z,11.91
2023-04-03T10:50:33.885Z,11.94
2023-04-03T10:53:10.385Z,11.94
2023-04-03T10:55:49.229Z,11.93
2023-04-03T10:58:26.069Z,11.92
2023-04-03T11:01:03.665Z,11.87
2023-04-03T11:03:42.222Z,11.82
2023-04-03T11:06:17.176Z,11.78
2023-04-03T11:08:56.230Z,11.74
2023-04-03T11:11:30.014Z,11.71
2023-04-03T11:14:04.575Z,11.67
2023-04-03T11:16:51.083Z,11.64
2023-04-03T11:19:33.752Z,11.60
2023-04-03T11:22:10.796Z,11.57
2023-04-03T11:24:44.412Z,11.56
2023-04-03T11:27:19.800Z,11.53
2023-04-03T11:29:54.448Z,11.56
2023-04-03T11:32:34.397Z,11.62
2023-04-03T11:35:09.740Z,11.66
2023-04-03T11:37:45.420Z,11.68
2023-04-03T11:40:23.601Z,11.70
2023-04-03T11:42:57.679Z,11.71
2023-04-03T11:45:35.647Z,11.70
2023-04-03T11:48:23.342Z,11.69
2023-04-03T11:50:58.716Z,11.72
2023-04-03T11:53:35.777Z,11.77
2023-04-03T11:56:27.003Z,11.82
2023-04-03T11:59:24.146Z,11.89
2023-04-03T12:01:57.578Z,11.94
2023-04-03T12:04:31.557Z,11.96
2023-04-03T12:07:22.808Z,11.98
2023-04-03T12:10:11.514Z,11.98
2023-04-03T12:13:04.859Z,12.00
2023-04-03T12:15:49.362Z,12.00
2023-04-03T12:18:43.713Z,12.00
2023-04-03T12:21:19.556Z,12.00
2023-04-03T12:24:01.460Z,12.00
2023-04-03T12:26:48.076Z,12.05
2023-04-03T12:29:25.719Z,12.11
2023-04-03T12:32:11.612Z,12.23
2023-04-03T12:34:52.910Z,12.37
2023-04-03T12:37:36.526Z,12.51
2023-04-03T12:40:12.683Z,12.68
2023-04-03T12:42:58.383Z,12.81
2023-04-03T12:45:39.855Z,12.97
2023-04-03T12:48:16.282Z,13.06
2023-04-03T12:50:49.384Z,13.15
2023-04-03T12:53:24.971Z,13.19
2023-04-03T12:55:58.085Z,13.18
2023-04-03T12:58:31.806Z,13.17
2023-04-03T13:01:06.644Z,13.10
2023-04-03T13:03:40.413Z,13.02
2023-04-03T13:06:17.144Z,12.95
2023-04-03T13:08:53.342Z,12.86
2023-04-03T13:11:27.557Z,12.82
2023-04-03T13:14:01.351Z,12.78
2023-04-03T13:16:35.580Z,12.77
2023-04-03T13:19:08.361Z,12.79
2023-04-03T13:21:41.328Z,12.83
2023-04-03T13:24:15.676Z,12.86
2023-04-03T13:26:48.624Z,12.88
2023-04-03T13:29:29.975Z,12.89
2023-04-03T13:32:07.237Z,12.87
2023-04-03T13:34:42.552Z,12.82
2023-04-03T13:37:25.908Z,12.75
2023-04-03T13:39:59.474Z,12.65
2023-04-03T13:42:32.921Z,12.54
2023-04-03T13:45:17.708Z,12.38
2023-04-03T13:47:52.523Z,12.24
2023-04-03T13:50:27.045Z,12.11
2023-04-03T13:53:03.303Z,11.98
2023-04-03T13:55:37.567Z,11.86
2023-04-03T13:58:23.422Z,11.78
2023-04-03T14:00:57.065Z,11.70
2023-04-03T14:03:33.530Z,11.66
2023-04-03T14:06:07.910Z,11.64
2023-04-03T14:08:43.524Z,11.65
2023-04-03T14:11:17.579Z,11.66
2023-04-03T14:13:51.326Z,11.66
2023-04-03T14:16:25.187Z,11.68
2023-04-03T14:18:59.359Z,11.70
2023-04-03T14:21:32.176Z,11.75
2023-04-03T14:24:05.029Z,11.73
2023-04-03T14:26:37.835Z,11.75
2023-04-03T14:29:12.315Z,11.75
2023-04-03T14:31:46.224Z,11.74
2023-04-03T14:34:20.323Z,11.76
2023-04-03T14:36:53.563Z,11.77
2023-04-03T14:39:26.442Z,11.77
2023-04-03T14:41:59.179Z,11.80
2023-04-03T14:44:31.883Z,11.82
2023-04-03T14:47:04.679Z,11.86
2023-04-03T14:49:38.761Z,11.88
2023-04-03T14:52:18.605Z,11.89
2023-04-03T14:54:52.207Z,11.88
2023-04-03T14:57:26.260Z,11.87
2023-04-03T14:59:59.174Z,11.87
2023-04-03T15:02:33.858Z,11.86
2023-04-03T15:05:10.528Z,11.86
2023-04-03T15:07:44.609Z,11.80
2023-04-03T15:10:18.508Z,11.78
2023-04-03T15:12:51.973Z,11.75
2023-04-03T15:15:25.799Z,11.68
2023-04-03T15:17:59.747Z,11.62
2023-04-03T15:20:34.683Z,11.57
2023-04-03T15:23:07.512Z,11.49
2023-04-03T15:25:40.548Z,11.39
2023-04-03T15:28:19.713Z,11.31
2023-04-03T15:30:52.384Z,11.25
2023-04-03T15:33:25.433Z,11.19
2023-04-03T15:36:07.425Z,11.12
2023-04-03T15:38:44.766Z,11.06
2023-04-03T15:41:17.429Z,10.98
2023-04-03T15:43:50.430Z,10.94
2023-04-03T15:46:23.215Z,10.88
2023-04-03T15:48:56.085Z,10.84
2023-04-03T15:51:30.517Z,10.83
2023-04-03T15:54:03.227Z,10.83
2023-04-03T15:56:35.907Z,10.80
2023-04-03T15:59:08.601Z,10.81
2023-04-03T16:01:41.762Z,10.80
2023-04-03T16:04:15.607Z,10.79
2023-04-03T16:06:50.556Z,10.81
2023-04-03T16:09:23.218Z,10.79
2023-04-03T16:11:55.934Z,10.78
2023-04-03T16:14:29.107Z,10.81
2023-04-03T16:17:02.420Z,10.81
2023-04-03T16:19:35.338Z,10.79
2023-04-03T16:22:09.762Z,10.81
2023-04-03T16:24:42.536Z,10.80
2023-04-03T16:27:15.430Z,10.82
2023-04-03T16:29:48.086Z,10.82
2023-04-03T16:32:20.967Z,10.81
2023-04-03T16:34:53.823Z,10.81
2023-04-03T16:37:28.807Z,10.80
2023-04-03T16:40:03.910Z,10.76
2023-04-03T16:42:37.981Z,10.75
2023-04-03T16:45:11.362Z,10.72
2023-04-03T16:47:44.550Z,10.71
2023-04-03T16:50:17.433Z,10.70
2023-04-03T16:52:51.901Z,10.68
2023-04-03T16:55:24.660Z,10.66
2023-04-03T16:57:57.384Z,10.63
2023-04-03T17:00:30.243Z,10.61
2023-04-03T17:03:03.003Z,10.57
2023-04-03T17:05:35.872Z,10.55
2023-04-03T17:08:10.271Z,10.51
2023-04-03T17:10:42.975Z,10.46
2023-04-03T17:13:15.681Z,10.42
2023-04-03T17:15:48.661Z,10.39
2023-04-03T17:18:21.357Z,10.35
2023-04-03T17:20:54.080Z,10.28
2023-04-03T17:23:29.260Z,10.25
2023-04-03T17:26:02.186Z,10.18
2023-04-03T17:28:35.070Z,10.15
2023-04-03T17:31:07.971Z,10.10
2023-04-03T17:33:40.811Z,10.05
2023-04-03T17:36:13.613Z,10.00
2023-04-03T17:38:48.819Z,9.96
2023-04-03T17:41:22.126Z,9.92
2023-04-03T17:43:57.023Z,9.89
2023-04-03T17:46:31.415Z,9.83
2023-04-03T17:49:05.598Z,9.82
2023-04-03T17:51:38.286Z,9.80
2023-04-03T17:54:12.797Z,9.78
2023-04-03T17:56:48.481Z,9.75
2023-04-03T17:59:21.195Z,9.72
2023-04-03T18:01:54.126Z,9.73
2023-04-03T18:04:29.032Z,9.70
2023-04-03T18:07:03.675Z,9.69
2023-04-03T18:09:39.587Z,9.68
2023-04-03T18:12:12.319Z,9.66
2023-04-03T18:14:45.519Z,9.64
2023-04-03T18:17:19.561Z,9.62
2023-04-03T18:19:52.766Z,9.59
2023-04-03T18:22:25.718Z,9.57
2023-04-03T18:25:00.145Z,9.54
2023-04-03T18:27:32.947Z,9.52
2023-04-03T18:30:08.707Z,9.48
2023-04-03T18:32:41.519Z,9.45
2023-04-03T18:35:14.314Z,9.43
2023-04-03T18:37:47.090Z,9.42
2023-04-03T18:40:21.290Z,9.38
2023-04-03T18:42:53.982Z,9.37
2023-04-03T18:45:26.860Z,9.36
2023-04-03T18:48:00.332Z,9.33
2023-04-03T18:50:33.364Z,9.33
2023-04-03T18:53:06.044Z,9.31
2023-04-03T18:55:40.412Z,9.32
2023-04-03T18:58:13.311Z,9.30
2023-04-03T19:00:46.207Z,9.29
2023-04-03T19:03:19.099Z,9.29
2023-04-03T19:05:51.912Z,9.26
2023-04-03T19:08:24.916Z,9.23
2023-04-03T19:10:59.026Z,9.23
2023-04-03T19:13:32.672Z,9.23
2023-04-03T19:16:05.736Z,9.21
2023-04-03T19:18:38.503Z,9.20
2023-04-03T19:21:11.210Z,9.18
2023-04-03T19:23:45.104Z,9.16
2023-04-03T19:26:19.237Z,9.12
2023-04-03T19:28:52.687Z,9.11
2023-04-03T19:31:25.487Z,9.07
2023-04-03T19:33:58.662Z,9.07
2023-04-03T19:36:31.662Z,9.04
2023-04-03T19:39:04.568Z,9.03
2023-04-03T19:41:40.632Z,9.01
2023-04-03T19:44:13.721Z,8.97
2023-04-03T19:46:51.264Z,8.91
2023-04-03T19:49:24.490Z,8.85
2023-04-03T19:51:57.140Z,8.78
2023-04-03T19:54:29.796Z,8.71
2023-04-03T19:57:04.007Z,8.62
2023-04-03T19:59:36.758Z,8.51
2023-04-03T20:02:09.539Z,8.40
2023-04-03T20:04:42.503Z,8.27
2023-04-03T20:07:15.192Z,8.18
2023-04-03T20:09:47.990Z,8.07
2023-04-03T20:12:22.162Z,7.95
2023-04-03T20:14:55.115Z,7.85
2023-04-03T20:17:28.272Z,7.77
2023-04-03T20:20:01.842Z,7.69
2023-04-03T20:22:34.563Z,7.57
2023-04-03T20:25:08.270Z,7.51
2023-04-03T20:27:42.674Z,7.43
2023-04-03T20:30:15.614Z,7.34
2023-04-03T20:32:48.545Z,7.29
2023-04-03T20:35:22.294Z,7.23
2023-04-03T20:37:55.020Z,7.17
2023-04-03T20:40:27.797Z,7.10
2023-04-03T20:43:03.078Z,7.03
2023-04-03T20:45:36.365Z,6.96
2023-04-03T20:48:09.109Z,6.89
2023-04-03T20:50:42.223Z,6.82
2023-04-03T20:53:18.097Z,6.76
2023-04-03T20:55:59.988Z,6.66
2023-04-03T20:58:34.648Z,6.59
2023-04-03T21:01:14.268Z,6.50
2023-04-03T21:03:47.493Z,6.42
2023-04-03T21:06:38.681Z,6.35
2023-04-03T21:09:30.045Z,6.28
2023-04-03T21:12:21.483Z,6.19
2023-04-03T21:15:13.054Z,6.12
2023-04-03T21:18:08.306Z,6.06
2023-04-03T21:20:41.721Z,6.01
2023-04-03T21:23:15.743Z,5.94
2023-04-03T21:25:49.462Z,5.90
2023-04-03T21:28:23.076Z,5.86
2023-04-03T21:30:55.956Z,5.83
2023-04-03T21:33:31.632Z,5.78
2023-04-03T21:36:04.352Z,5.75
2023-04-03T21:38:37.429Z,5.71
2023-04-03T21:41:10.143Z,5.68
2023-04-03T21:43:42.862Z,5.63
2023-04-03T21:46:16.090Z,5.60
2023-04-03T21:48:50.252Z,5.56
2023-04-03T21:51:23.385Z,5.54
2023-04-03T21:53:56.489Z,5.51
2023-04-03T21:56:31.434Z,5.48
2023-04-03T21:59:04.742Z,5.45
2023-04-03T22:01:37.645Z,5.43
2023-04-03T22:04:12.803Z,5.38
2023-04-03T22:06:45.864Z,5.35
2023-04-03T22:09:18.737Z,5.31
2023-04-03T22:11:51.810Z,5.29
2023-04-03T22:14:24.638Z,5.27
2023-04-03T22:16:58.264Z,5.23
2023-04-03T22:19:32.664Z,5.20
2023-04-03T22:22:05.275Z,5.17
2023-04-03T22:24:38.175Z,5.14
2023-04-03T22:27:11.838Z,5.10
2023-04-03T22:29:44.584Z,5.05
2023-04-03T22:32:17.319Z,5.00
2023-04-03T22:34:51.454Z,4.97
2023-04-03T22:37:24.150Z,4.95
2023-04-03T22:39:56.834Z,4.90
2023-04-03T22:42:29.742Z,4.86
2023-04-03T22:45:02.663Z,4.81
2023-04-03T22:47:35.393Z,4.78
2023-04-03T22:50:10.019Z,4.73
2023-04-03T22:52:42.696Z,4.67
2023-04-03T22:55:19.440Z,4.64
2023-04-03T22:57:52.332Z,4.58
2023-04-03T23:00:27.739Z,4.55
2023-04-03T23:03:01.398Z,4.48
2023-04-03T23:05:35.496Z,4.45
2023-04-03T23:08:08.262Z,4.38
2023-04-03T23:10:42.459Z,4.34
2023-04-03T23:13:15.457Z,4.29
2023-04-03T23:15:53.383Z,4.23
2023-04-03T23:18:26.878Z,4.17
2023-04-03T23:21:01.805Z,4.13
2023-04-03T23:23:34.572Z,4.08
2023-04-03T23:26:09.209Z,4.05
2023-04-03T23:28:42.245Z,3.98
2023-04-03T23:31:14.945Z,3.95
2023-04-03T23:33:47.805Z,3.90
2023-04-03T23:36:22.250Z,3.85
2023-04-03T23:38:56.952Z,3.81
2023-04-03T23:41:29.677Z,3.76
2023-04-03T23:44:02.322Z,3.71
2023-04-03T23:46:35.291Z,3.67
2023-04-03T23:49:07.977Z,3.63
2023-04-03T23:51:42.239Z,3.58
2023-04-03T23:54:14.875Z,3.54
2023-04-03T23:56:48.106Z,3.51
2023-04-03T23:59:21.370Z,3.48
